• Join FlightAware (Why Join?)
  • Login
  • US Flag 
03:00AM EDT


 

Airport Tracker/Info


-or-


 

Live Flight TrackerFlight Track Log ✈ GJS3707 ✈ 24-May-2013 ✈ KBOI - KORD

Flight Track Log - Related Links

Times and Time Zones

All times are in EDT time to prevent confusion due to time zone crossing. See the GJS3707 flight status page for this flight to view local times or setup timezone preferences in your user account.

Time Position Orientation Groundspeed Altitude Reporting Facility
EDT Latitude Longitude Course Direction KTS MPH feet Rate Location/Type
03:29PM 43.6261 -116.3528 315° West 250 288 6,300  Level Salt Lake Center
03:30PM 43.6736 -116.2636 54° Northeast 284 327 8,600 2,220 Climbing Salt Lake Center
03:31PM 43.6602 -115.5421 78° East  Level FlightAware Approximate
03:31PM 43.6869 -116.1575 80° East 294 338 10,900  Level Salt Lake Center
03:32PM 43.6786 -115.3689 83° East  Level FlightAware Approximate
03:32PM 43.7028 -116.0225 81° East 318 366 12,500  Level Salt Lake Center
03:33PM 43.7038 -115.1996 81° East  Level FlightAware Approximate
03:33PM 43.7194 -115.8894 80° East 356 410 13,700  Level Salt Lake Center
03:34PM 43.7381 -115.7200 81° East 394 453 15,600 1,680 Climbing Salt Lake Center
03:35PM 43.7564 -115.5703 80° East 412 474 17,200 1,680 Climbing Salt Lake Center
03:36PM 43.7758 -115.3903 81° East 424 488 19,100 1,680 Climbing Salt Lake Center
03:37PM 43.7947 -115.2319 81° East 436 502 20,700 1,500 Climbing Salt Lake Center
03:38PM 43.8153 -115.0447 81° East 443 510 22,300 1,320 Climbing Salt Lake Center
03:39PM 43.8336 -114.8786 81° East 457 526 23,500 1,320 Climbing Salt Lake Center
03:40PM 43.8550 -114.6844 81° East 458 527 25,100 1,200 Climbing Salt Lake Center
03:41PM 43.8722 -114.5147 82° East 467 537 26,000 960 Climbing Salt Lake Center
03:42PM 43.8922 -114.3406 81° East 477 549 27,100 1,200 Climbing Salt Lake Center
03:43PM 43.9322 -114.1411 74° East 482 555 28,500 960 Climbing Salt Lake Center
03:44PM 43.9664 -113.9664 75° East 491 565 29,100 540 Climbing Salt Lake Center
03:45PM 44.0058 -113.7514 76° East 510 587 29,700 480 Climbing Salt Lake Center
03:46PM 44.0414 -113.5667 75° East 516 594 30,100 480 Climbing Salt Lake Center
03:47PM 44.0725 -113.3453 79° East 525 604 30,800 480 Climbing Salt Lake Center
03:49PM 44.0758 -113.1494 89° East 529 609 31,200 600 Climbing Salt Lake Center
03:50PM 44.0853 -112.9203 87° East 533 613 32,100 840 Climbing Salt Lake Center
03:51PM 44.0908 -112.7267 88° East 527 606 33,000 960 Climbing Salt Lake Center
03:52PM 44.0989 -112.5050 87° East 517 595 34,200 960 Climbing Salt Lake Center
03:53PM 44.1031 -112.3156 88° East 514 592 35,000 360 Climbing Salt Lake Center
03:54PM 44.1100 -112.0981 87° East 509 586 35,000  Level Salt Lake Center
03:55PM 44.1167 -111.9131 87° East 504 580 35,000  Level Salt Lake Center
03:56PM 44.1217 -111.7272 88° East 505 581 35,000  Level Salt Lake Center
03:57PM 44.1258 -111.5106 88° East 505 581 35,000  Level Salt Lake Center
03:58PM 44.1308 -111.2919 88° East 509 586 35,000  Level Salt Lake Center
03:59PM 44.1339 -111.1042 89° East 512 589 35,000  Level Salt Lake Center
04:00PM 44.1386 -110.8842 88° East 512 589 35,000  Level Salt Lake Center
04:01PM 44.1403 -110.6958 89° East 512 589 35,000  Level Salt Lake Center
04:02PM 44.1453 -110.5036 88° East 519 597 35,000  Level Salt Lake Center
04:03PM 44.1486 -110.2814 89° East 519 597 35,000  Level Salt Lake Center
04:04PM 44.1500 -110.0914 89° East 514 592 35,000  Level Salt Lake Center
04:05PM 44.1531 -109.8669 89° East 518 596 35,000  Level Salt Lake Center
04:06PM 44.1539 -109.6761 90° East 517 595 35,000  Level Salt Lake Center
04:07PM 44.1553 -109.4517 89° East 513 590 35,000  Level Salt Lake Center
04:08PM 44.1547 -109.2628 90° East 511 588 35,000  Level Salt Lake Center
04:09PM 44.1558 -109.0442 90° East 508 585 35,000  Level Salt Lake Center
04:10PM 44.1556 -108.8569 90° East 507 583 35,000  Level Salt Lake Center
04:11PM 44.1556 -108.6408 90° East 503 579 35,000  Level Salt Lake Center
04:12PM 44.1556 -108.4564 90° East 501 577 35,000  Level Salt Lake Center
04:13PM 44.1547 -108.2414 90° East 500 575 35,000  Level Salt Lake Center
04:14PM 44.1533 -108.0564 91° East 502 578 35,000  Level Salt Lake Center
04:15PM 44.1517 -107.8733 91° East 498 573 35,000  Level Salt Lake Center
04:16PM 44.1492 -107.6583 91° East 498 573 35,000  Level Salt Lake Center
04:17PM 44.1472 -107.4764 91° East 494 568 35,000  Level Salt Lake Center
04:18PM 44.1447 -107.2614 91° East 497 572 35,000  Level Salt Lake Center
04:19PM 44.1417 -107.0783 91° East 496 571 35,000  Level Salt Lake Center
04:21PM 44.1397 -106.8644 91° East 495 570 35,000  Level Salt Lake Center
04:22PM 44.1364 -106.6817 91° East 494 568 35,000  Level Salt Lake Center
04:23PM 44.1317 -106.4681 92° East 494 568 35,000  Level Salt Lake Center
04:23PM 44.1292 -106.3503 92° East 491 565 35,000  Level Denver Center
04:24PM 44.1264 -106.1661 91° East 494 568 35,000  Level Denver Center
04:25PM 44.1219 -105.9550 92° East 491 565 35,000  Level Denver Center
04:26PM 44.1156 -105.7742 93° East 491 565 35,000  Level Denver Center
04:27PM 44.1108 -105.5933 92° East 490 564 35,000  Level Denver Center
04:28PM 44.1047 -105.3822 92° East 489 563 35,000  Level Denver Center
04:29PM 44.0994 -105.1994 92° East 490 564 35,000  Level Denver Center
04:30PM 44.0922 -104.9875 93° East 491 565 35,000  Level Denver Center
04:31PM 44.0856 -104.8047 93° East 492 566 35,000  Level Denver Center
04:32PM 44.0783 -104.5919 93° East 493 567 35,000  Level Denver Center
04:34PM 44.0717 -104.4103 93° East 492 566 35,000  Level Denver Center
04:35PM 44.0622 -104.1994 93° East 489 563 35,000  Level Denver Center
04:36PM 44.0553 -104.0181 93° East 491 565 35,000  Level Denver Center
04:37PM 44.0475 -103.8383 93° East 488 562 35,000  Level Denver Center
04:38PM 44.0386 -103.6283 93° East 488 562 35,000  Level Denver Center
04:39PM 44.0303 -103.4500 94° East 485 558 35,000  Level Denver Center
04:40PM 44.0208 -103.2461 94° East 475 547 35,000  Level Denver Center
04:41PM 44.0094 -103.0075 94° East 482 555 35,000  Level Denver Center
04:42PM 44.0011 -102.8281 94° East 486 559 35,000  Level Denver Center
04:43PM 43.9894 -102.6200 94° East 489 563 35,000  Level Denver Center
04:44PM 43.9772 -102.4314 95° East 491 565 35,000  Level Denver Center
04:45PM 43.9644 -102.2425 95° East 493 567 35,000  Level Denver Center
04:46PM 43.9525 -102.0536 95° East 494 568 35,000  Level Denver Center
04:47PM 43.9394 -101.8628 95° East 496 571 35,000  Level Denver Center
04:48PM 43.9311 -101.6786 94° East 487 560 35,000  Level Denver Center
04:49PM 43.9239 -101.5675 95° East 489 563 35,000  Level Minneapolis Center
04:50PM 43.9117 -101.3825 95° East 487 560 35,000  Level Minneapolis Center
04:50PM 43.9058 -101.2739 94° East 479 551 35,000  Level Denver Center
04:51PM 43.9011 -101.2003 95° East 482 555 35,000  Level Minneapolis Center
04:51PM 43.8928 -101.0897 96° East 480 552 35,000  Level Denver Center
04:52PM 43.8861 -100.9822 95° East 477 549 35,000  Level Minneapolis Center
04:53PM 43.8731 -100.8014 96° East 475 547 35,000  Level Minneapolis Center
04:54PM 43.8606 -100.6222 95° East 472 543 35,000  Level Minneapolis Center
04:55PM 43.8469 -100.4428 96° East 471 542 35,000  Level Minneapolis Center
04:56PM 43.8336 -100.2642 96° East 469 540 35,000  Level Minneapolis Center
04:57PM 43.8200 -100.0839 96° East 471 542 35,000  Level Minneapolis Center
04:58PM 43.8028 -99.8656 96° East 475 547 35,000  Level Minneapolis Center
04:59PM 43.7886 -99.6850 96° East 476 548 35,000  Level Minneapolis Center
05:00PM 43.7739 -99.5028 96° East 477 549 35,000  Level Minneapolis Center
05:01PM 43.7608 -99.3225 96° East 475 547 35,000  Level Minneapolis Center
05:02PM 43.7417 -99.1114 97° East 470 541 35,000  Level Minneapolis Center
05:03PM 43.7106 -98.9358 104° East 472 543 35,000  Level Minneapolis Center
05:04PM 43.6689 -98.7669 109° East 471 542 35,000  Level Minneapolis Center
05:05PM 43.6300 -98.5894 107° East 481 554 35,000  Level Minneapolis Center
05:06PM 43.5919 -98.4119 106° East 485 558 35,000  Level Minneapolis Center
05:07PM 43.5481 -98.1997 106° East 482 555 35,000  Level Minneapolis Center
05:08PM 43.5100 -98.0225 106° East 484 557 35,000  Level Minneapolis Center
05:09PM 43.4717 -97.8450 107° East 484 557 35,000  Level Minneapolis Center
05:10PM 43.4353 -97.6675 106° East 483 556 35,000  Level Minneapolis Center
05:12PM 43.3967 -97.4886 106° East 488 562 35,000  Level Minneapolis Center
05:13PM 43.3583 -97.3108 106° East 489 563 35,000  Level Minneapolis Center
05:14PM 43.3150 -97.0992 106° East 486 559 35,000  Level Minneapolis Center
05:15PM 43.2769 -96.9214 106° East 487 560 35,000  Level Minneapolis Center
05:16PM 43.2389 -96.7458 107° East 484 557 35,000  Level Minneapolis Center
05:17PM 43.2014 -96.5678 106° East 488 562 35,000  Level Minneapolis Center
05:18PM 43.1636 -96.3925 106° East 485 558 35,000  Level Minneapolis Center
05:19PM 43.1197 -96.1800 106° East 486 559 35,000  Level Minneapolis Center
05:20PM 43.0825 -96.0022 106° East 488 562 35,000  Level Minneapolis Center
05:21PM 43.0442 -95.8269 107° East 486 559 35,000  Level Minneapolis Center
05:22PM 43.0033 -95.6492 107° East 491 565 35,000  Level Minneapolis Center
05:23PM 42.9619 -95.4700 107° East 497 572 35,000  Level Minneapolis Center
05:24PM 42.9372 -95.2467 99° East 499 574 35,000  Level Minneapolis Center
05:25PM 42.9297 -95.0586 93° East 499 574 35,000  Level Minneapolis Center
05:26PM 42.9228 -94.8711 93° East 497 572 35,000  Level Minneapolis Center
05:27PM 42.9161 -94.6853 93° East 495 570 35,000  Level Minneapolis Center
05:28PM 42.9075 -94.4739 93° East 498 573 35,000  Level Minneapolis Center
05:29PM 42.8997 -94.2894 93° East 495 570 35,000  Level Minneapolis Center
05:30PM 42.8894 -94.1036 94° East 496 571 35,000  Level Minneapolis Center
05:31PM 42.8831 -93.9186 93° East 495 570 35,000  Level Minneapolis Center
05:32PM 42.8728 -93.7322 94° East 496 571 35,000  Level Minneapolis Center
05:33PM 42.8611 -93.5086 94° East 498 573 35,000  Level Minneapolis Center
05:34PM 42.8528 -93.3247 93° East 495 570 35,000  Level Minneapolis Center
05:35PM 42.8428 -93.1372 94° East 497 572 35,000  Level Minneapolis Center
05:36PM 42.8364 -93.0244 94° East 496 571 35,000 -180 Level Chicago Center
05:37PM 42.8269 -92.8389 94° East 498 573 34,800 -720 Descending Chicago Center
05:38PM 42.8142 -92.6494 95° East 508 585 33,600 -1,200 Descending Chicago Center
05:39PM 42.8039 -92.4564 94° East 517 595 32,400 -1,260 Descending Chicago Center
05:40PM 42.7892 -92.2219 95° East 524 603 31,000 -720 Descending Chicago Center
05:41PM 42.7786 -92.0281 94° East 521 600 31,000  Level Chicago Center
05:42PM 42.7667 -91.8383 95° East 512 589 31,000  Level Chicago Center
05:43PM 42.7556 -91.6369 94° East 511 588 31,000  Level Chicago Center
05:44PM 42.7408 -91.4292 95° East 522 601 31,000  Level Chicago Center
05:45PM 42.7278 -91.2353 95° East 530 610 31,000  Level Chicago Center
05:46PM 42.7136 -91.0425 96° East 520 598 31,000  Level Chicago Center
05:47PM 42.6989 -90.8508 96° East 517 595 31,000 -420 Level Chicago Center
05:48PM 42.6817 -90.6183 96° East 521 600 30,200 -1,200 Descending Chicago Center
05:49PM 42.6681 -90.4278 95° East 514 592 28,600 -1,560 Descending Chicago Center
05:50PM 42.6528 -90.2422 96° East 499 574 27,000 -1,740 Descending Chicago Center
05:51PM 42.6381 -90.0622 96° East 487 560 25,100 -2,100 Descending Chicago Center
05:52PM 42.6219 -89.8592 96° East 472 543 22,700 -2,220 Descending Chicago Center
05:53PM 42.6081 -89.6867 96° East 462 532 20,600 -2,040 Descending Chicago Center
05:54PM 42.5942 -89.5169 96° East 454 522 18,500 -1,860 Descending Chicago Center
05:56PM 42.5792 -89.3517 97° East 444 511 16,800 -2,040 Descending Chicago Center
05:57PM 42.5625 -89.1631 97° East 429 494 14,300 -2,220 Descending Chicago Center
05:58PM 42.5319 -89.0208 106° East 399 459 12,200 -1,620 Descending Chicago Center
05:59PM 42.4906 -88.8817 112° Southeast 397 457 11,000 -1,080 Descending Chicago Center
06:00PM 42.4494 -88.7464 112° Southeast 391 450 10,000 -780 Descending Chicago Center
06:01PM 42.4169 -88.6361 112° Southeast 319 367 9,500 -540 Descending Chicago Center
06:02PM 42.3792 -88.5172 113° Southeast 297 342 9,000 -540 Descending Chicago Center
06:03PM 42.3222 -88.4494 139° Southeast 303 349 8,500 -540 Descending Chicago Center
06:04PM 42.2417 -88.4272 168° South 295 339 8,000 -300 Descending Chicago Center
06:05PM 42.1625 -88.4022 167° South 293 337 8,000 -660 Level Chicago Center
06:06PM 42.0689 -88.3717 166° South 291 335 6,700 -1,080 Descending Chicago Center
06:08PM 41.9833 -88.2667 138° Southeast 213 245 4,900 -840 Descending Chicago TRACON
06:09PM 41.9706 -88.1939 103° East 190 219 4,200 -720 Descending Chicago Center
06:10PM 41.9664 -88.1314 95° East 180 207 3,400 -780 Descending Chicago Center